Ext Buena Vista, Puerto Rico
Current Conditions -  °F | °C
As of 11:50 PM on Wednesday 17 Dec 2014 (Local Time) from TJBQ Reporting Station
Broken Clouds Broken Clouds  
Wind Chill: 75°   Ceiling: 4700
Heat Index: 75°   Visibility: 10mi
Dew Point: 64°   Wind: 10mph
Humidity: 69%   Direction: 70°ENE
Pressure: 30.06"   Gusts: NA
Location:  18.0055°N, 66.6209°W
Report Text: TJBQ 180350Z 07009KT 10SM SCT032 SCT038 BKN047 24/18 A3006 RMK RWY08 ATIS O
Loading
Personal Weather Stations






























Interactive Weather Map New forecast layout! Learn more

10-Day Weather Forecast

Advertisements
Track Severe Weather on mobile